Time;durP1;ratioP1;P1;durP2;ratioP2;P2;SDS_P1;SDS_P2;PMS_P1;PMS_P2;Temp;Humidity;BMP_temperature;BMP_pressure;BME280_temperature;BME280_humidity;BME280_pressure;Samples;Min_cycle;Max_cycle;Signal;HPM_P1;HPM_P2
2022/11/27 00:01:32;;;;;;;31.52;16.08;;;6.50;99.90;;;;;;4987307;28;20058;-75
2022/11/27 00:03:57;;;;;;;36.00;15.07;;;6.50;99.90;;;;;;4987342;28;20115;-75
2022/11/27 00:06:25;;;;;;;39.33;15.40;;;6.40;99.90;;;;;;4986812;28;20908;-75
2022/11/27 00:08:51;;;;;;;29.15;15.82;;;6.40;99.90;;;;;;4984372;28;20064;-75
2022/11/27 00:11:19;;;;;;;31.08;14.40;;;6.40;99.90;;;;;;4987240;28;20418;-75
2022/11/27 00:13:45;;;;;;;;;;;6.40;99.90;;;;;;4982376;28;20053;-75
2022/11/27 00:16:12;;;;;;;51.47;16.80;;;6.40;99.90;;;;;;4985236;28;19929;-75
2022/11/27 00:18:37;;;;;;;32.70;15.43;;;6.30;99.90;;;;;;4987043;28;20506;-75
2022/11/27 00:21:06;;;;;;;60.80;17.10;;;6.30;99.90;;;;;;4986522;28;20150;-75
2022/11/27 00:23:33;;;;;;;37.78;15.32;;;6.40;99.90;;;;;;5003460;28;20054;-75
2022/11/27 00:25:59;;;;;;;41.97;16.15;;;6.40;99.90;;;;;;4985596;28;20046;-75
2022/11/27 00:28:24;;;;;;;31.58;13.88;;;6.40;99.90;;;;;;4991016;28;20100;-75
2022/11/27 00:30:50;;;;;;;30.17;14.27;;;6.40;99.90;;;;;;4986770;28;20050;-75
2022/11/27 00:33:16;;;;;;;33.22;14.43;;;6.40;99.90;;;;;;4991353;28;20053;-75
2022/11/27 00:35:42;;;;;;;35.97;15.93;;;6.40;99.90;;;;;;4990750;28;20057;-75
2022/11/27 00:38:07;;;;;;;38.33;14.45;;;6.40;99.90;;;;;;4990823;28;20130;-75
2022/11/27 00:40:33;;;;;;;42.08;17.17;;;6.30;99.90;;;;;;4985968;28;20077;-75
2022/11/27 00:43:00;;;;;;;43.50;15.95;;;6.30;99.90;;;;;;4984744;28;20055;-75
2022/11/27 00:45:26;;;;;;;38.55;16.10;;;6.30;99.90;;;;;;4986264;28;20066;-75
2022/11/27 00:47:52;;;;;;;33.13;15.10;;;6.30;99.90;;;;;;4985449;28;20077;-75
2022/11/27 00:50:17;;;;;;;44.20;16.98;;;6.20;99.90;;;;;;4990575;28;20507;-75
2022/11/27 00:52:43;;;;;;;40.67;17.58;;;6.20;99.90;;;;;;5006334;28;20081;-75
2022/11/27 00:55:09;;;;;;;41.92;15.43;;;6.20;99.90;;;;;;4990566;28;20101;-75
2022/11/27 00:57:34;;;;;;;43.15;17.00;;;6.20;99.90;;;;;;4988715;28;20471;-75
2022/11/27 01:00:00;;;;;;;44.13;19.52;;;6.10;99.90;;;;;;4990364;28;20046;-75
2022/11/27 01:02:26;;;;;;;41.65;18.17;;;6.10;99.90;;;;;;4988549;28;20408;-75
2022/11/27 01:04:51;;;;;;;40.92;16.63;;;6.10;99.90;;;;;;4982112;28;20048;-75
2022/11/27 01:07:17;;;;;;;45.42;17.83;;;6.10;99.90;;;;;;4989543;28;20057;-75
2022/11/27 01:09:43;;;;;;;46.75;17.00;;;6.00;99.90;;;;;;4990239;28;20384;-75
2022/11/27 01:12:09;;;;;;;42.47;17.02;;;6.10;99.90;;;;;;4989765;28;20101;-75
2022/11/27 01:14:34;;;;;;;32.50;16.60;;;6.00;99.90;;;;;;4989933;28;20486;-75
2022/11/27 01:17:00;;;;;;;27.33;17.00;;;6.00;99.90;;;;;;4988364;28;20053;-75
2022/11/27 01:19:26;;;;;;;30.85;16.30;;;6.00;99.90;;;;;;4989946;28;20085;-75
2022/11/27 01:21:51;;;;;;;37.45;17.90;;;6.00;99.90;;;;;;4985210;28;20572;-75
2022/11/27 01:24:17;;;;;;;32.88;16.33;;;6.00;99.90;;;;;;4988508;28;20085;-75
2022/11/27 01:26:44;;;;;;;40.88;18.30;;;6.00;99.90;;;;;;4989424;28;20046;-75
2022/11/27 01:29:10;;;;;;;34.25;17.50;;;6.00;99.90;;;;;;5005943;28;20106;-75
2022/11/27 01:31:36;;;;;;;35.92;17.38;;;6.00;99.90;;;;;;4989885;28;20050;-75
2022/11/27 01:34:14;;;;;;;34.85;15.65;;;5.90;99.90;;;;;;4986806;28;20031;-75
2022/11/27 01:36:39;;;;;;;36.83;17.58;;;5.90;99.90;;;;;;4983937;28;20054;-76
2022/11/27 01:39:06;;;;;;;44.17;17.50;;;5.90;99.90;;;;;;4988018;28;20042;-75
2022/11/27 01:41:34;;;;;;;29.10;17.05;;;5.90;99.90;;;;;;4985944;28;20069;-75
2022/11/27 01:44:21;;;;;;;26.50;14.98;;;5.90;99.90;;;;;;5005022;28;20046;-75
2022/11/27 01:46:58;;;;;;;30.23;16.45;;;5.90;99.90;;;;;;4978608;28;20050;-75
2022/11/27 01:49:45;;;;;;;34.83;16.77;;;5.90;99.90;;;;;;4986309;28;20050;-75
2022/11/27 01:52:16;;;;;;;31.98;16.17;;;5.90;99.90;;;;;;5002979;28;20129;-75
2022/11/27 01:55:05;;;;;;;40.30;17.83;;;5.80;99.90;;;;;;4988214;28;20081;-75
2022/11/27 01:57:37;;;;;;;37.85;17.20;;;5.80;99.90;;;;;;4982730;28;20081;-75
2022/11/27 02:00:06;;;;;;;44.88;16.88;;;5.80;99.90;;;;;;5005214;28;20054;-75
2022/11/27 02:02:32;;;;;;;33.95;16.65;;;5.80;99.90;;;;;;5005416;28;20050;-75
2022/11/27 02:04:57;;;;;;;31.98;17.42;;;5.70;99.90;;;;;;4988390;28;20038;-75
2022/11/27 02:07:23;;;;;;;33.55;18.00;;;5.70;99.90;;;;;;4984888;28;20043;-75
2022/11/27 02:09:49;;;;;;;33.90;17.27;;;5.70;99.90;;;;;;4988038;28;20419;-75
2022/11/27 02:12:25;;;;;;;30.48;16.08;;;5.60;99.90;;;;;;5005532;28;20086;-75
2022/11/27 02:15:09;;;;;;;30.13;17.05;;;5.60;99.90;;;;;;4996735;28;20050;-75
2022/11/27 02:17:54;;;;;;;43.38;17.23;;;5.70;99.90;;;;;;4985615;28;20117;-75
2022/11/27 02:20:29;;;;;;;34.28;16.77;;;5.60;99.90;;;;;;5005509;28;20457;-75
2022/11/27 02:22:58;;;;;;;39.53;16.65;;;5.60;99.90;;;;;;4983644;28;20046;-75
2022/11/27 02:25:23;;;;;;;;;;;5.60;99.90;;;;;;5003259;28;20058;-75
2022/11/27 02:28:03;;;;;;;29.90;15.80;;;5.50;99.90;;;;;;4987719;28;19926;-75
2022/11/27 02:30:35;;;;;;;27.35;15.93;;;5.50;99.90;;;;;;4983696;28;20050;-75
2022/11/27 02:33:06;;;;;;;30.23;16.77;;;5.50;99.90;;;;;;4984510;28;20050;-75
2022/11/27 02:35:47;;;;;;;26.65;17.25;;;5.50;99.90;;;;;;4986517;28;20104;-75
2022/11/27 02:38:28;;;;;;;33.72;17.73;;;5.50;99.90;;;;;;5004347;28;20066;-75
2022/11/27 02:41:05;;;;;;;31.92;18.33;;;5.50;99.90;;;;;;4978889;28;20122;-75
2022/11/27 02:43:45;;;;;;;33.70;16.23;;;5.50;99.90;;;;;;4988472;28;20054;-75
2022/11/27 02:46:12;;;;;;;49.35;18.80;;;5.50;99.90;;;;;;5004321;28;20637;-76
2022/11/27 02:48:47;;;;;;;31.10;15.18;;;5.50;99.90;;;;;;4987083;28;20046;-75
2022/11/27 02:51:17;;;;;;;28.40;15.65;;;5.50;99.90;;;;;;5003819;28;20061;-75
2022/11/27 02:53:49;;;;;;;43.83;19.30;;;5.50;99.90;;;;;;5003836;28;20054;-75
2022/11/27 02:56:19;;;;;;;35.47;16.40;;;5.50;99.90;;;;;;4999328;28;20491;-75
2022/11/27 02:58:46;;;;;;;32.35;15.65;;;5.40;99.90;;;;;;4987642;28;20069;-75
2022/11/27 03:01:15;;;;;;;26.90;16.42;;;5.40;99.90;;;;;;4990688;28;20125;-75
2022/11/27 03:03:46;;;;;;;34.22;15.63;;;5.40;99.90;;;;;;5004849;28;20262;-75
2022/11/27 03:06:17;;;;;;;30.15;13.98;;;5.40;99.90;;;;;;4983338;28;20848;-75
2022/11/27 03:08:46;;;;;;;27.25;15.63;;;5.50;99.90;;;;;;5003868;28;20046;-75
2022/11/27 03:11:14;;;;;;;36.88;16.83;;;5.50;99.90;;;;;;4985566;28;20038;-75
2022/11/27 03:13:44;;;;;;;41.35;16.10;;;5.50;99.90;;;;;;4987520;28;20082;-75
2022/11/27 03:16:20;;;;;;;25.05;14.75;;;5.40;99.90;;;;;;5007944;28;20050;-75
2022/11/27 03:19:11;;;;;;;33.95;15.07;;;5.50;99.90;;;;;;4988734;28;20081;-75
2022/11/27 03:21:42;;;;;;;29.08;12.82;;;5.40;99.90;;;;;;4974011;28;20150;-75
2022/11/27 03:24:09;;;;;;;33.15;15.80;;;5.40;99.90;;;;;;5002061;28;20050;-76
2022/11/27 03:26:36;;;;;;;32.22;14.93;;;5.40;99.90;;;;;;4985914;28;20105;-75
2022/11/27 03:29:06;;;;;;;30.90;15.85;;;5.40;99.90;;;;;;4984171;28;20054;-75
2022/11/27 03:31:32;;;;;;;42.08;13.75;;;5.50;99.90;;;;;;4986764;28;20056;-75
2022/11/27 03:33:57;;;;;;;39.00;14.93;;;5.50;99.90;;;;;;4987300;28;20046;-75
2022/11/27 03:36:23;;;;;;;42.08;15.00;;;5.40;99.90;;;;;;5003573;28;20058;-75
2022/11/27 03:38:52;;;;;;;29.77;14.70;;;5.50;99.90;;;;;;4987204;28;20046;-75
2022/11/27 03:41:37;;;;;;;34.38;14.15;;;5.40;99.90;;;;;;4985357;28;20054;-75
2022/11/27 03:44:17;;;;;;;28.13;14.35;;;5.40;99.90;;;;;;4984389;28;20057;-75
2022/11/27 03:46:46;;;;;;;27.50;13.68;;;5.50;99.90;;;;;;4987556;28;20133;-75
2022/11/27 03:49:30;;;;;;;;;;;5.40;99.90;;;;;;4990064;28;20534;-75
2022/11/27 03:52:28;;;;;;;25.15;13.95;;;5.50;99.90;;;;;;5004218;28;19921;-75
2022/11/27 03:55:12;;;;;;;30.00;14.77;;;5.40;99.90;;;;;;4986937;28;20058;-75
2022/11/27 03:57:54;;;;;;;28.30;14.93;;;5.50;99.90;;;;;;4989983;28;20057;-75
2022/11/27 04:00:20;;;;;;;24.33;14.20;;;5.40;99.90;;;;;;4980754;28;20549;-75
2022/11/27 04:02:51;;;;;;;34.38;13.55;;;5.40;99.90;;;;;;4990552;28;20041;-75
2022/11/27 04:05:18;;;;;;;25.23;14.15;;;5.40;99.90;;;;;;4990028;28;20067;-75
2022/11/27 04:07:44;;;;;;;35.35;13.10;;;5.50;99.90;;;;;;4990776;28;20326;-75
2022/11/27 04:10:11;;;;;;;30.60;14.13;;;5.40;99.90;;;;;;4990509;28;20054;-75
2022/11/27 04:12:37;;;;;;;30.70;12.75;;;5.40;99.90;;;;;;4990003;28;20085;-75
2022/11/27 04:15:04;;;;;;;29.50;12.85;;;5.40;99.90;;;;;;4987778;28;20537;-75
2022/11/27 04:17:29;;;;;;;32.08;13.30;;;5.40;99.90;;;;;;4986317;28;20138;-75
2022/11/27 04:19:55;;;;;;;32.78;12.50;;;5.40;99.90;;;;;;4991562;28;20659;-76
2022/11/27 04:22:20;;;;;;;32.58;14.63;;;5.40;99.90;;;;;;4983111;28;20038;-75
2022/11/27 04:24:46;;;;;;;27.23;14.15;;;5.40;99.90;;;;;;4981323;28;20038;-75
2022/11/27 04:27:12;;;;;;;29.67;12.95;;;5.40;99.90;;;;;;4984244;28;20133;-75
2022/11/27 04:29:37;;;;;;;34.03;13.18;;;5.40;99.90;;;;;;4989788;28;20053;-75
2022/11/27 04:32:04;;;;;;;30.58;13.32;;;5.40;99.90;;;;;;4989500;28;20410;-75
2022/11/27 04:34:30;;;;;;;30.17;13.70;;;5.30;99.90;;;;;;4987686;28;20153;-75
2022/11/27 04:36:55;;;;;;;24.55;13.15;;;5.30;99.90;;;;;;4989079;28;20064;-75
2022/11/27 04:39:21;;;;;;;26.70;14.20;;;5.30;99.90;;;;;;4990733;28;20042;-74
2022/11/27 04:41:47;;;;;;;28.00;12.50;;;5.40;99.90;;;;;;5005402;28;20052;-75
2022/11/27 04:44:13;;;;;;;27.88;12.80;;;5.30;99.90;;;;;;4983518;28;20054;-74
2022/11/27 04:46:39;;;;;;;28.23;12.73;;;5.40;99.90;;;;;;4980313;28;20034;-73
2022/11/27 04:49:05;;;;;;;24.70;12.82;;;5.30;99.90;;;;;;5004884;28;20050;-73
2022/11/27 04:51:31;;;;;;;31.85;11.75;;;5.40;99.90;;;;;;4990290;28;20061;-73
2022/11/27 04:53:57;;;;;;;28.73;12.80;;;5.30;99.90;;;;;;4989978;28;20085;-73
2022/11/27 04:56:22;;;;;;;23.92;12.32;;;5.30;99.90;;;;;;4989538;28;20049;-72
2022/11/27 04:58:48;;;;;;;31.25;13.38;;;5.30;99.90;;;;;;4989685;28;20133;-74
2022/11/27 05:01:14;;;;;;;28.67;13.60;;;5.30;99.90;;;;;;4986146;28;20101;-74
2022/11/27 05:03:40;;;;;;;24.85;11.30;;;5.30;99.90;;;;;;4987479;28;20050;-73
2022/11/27 05:06:06;;;;;;;20.83;10.52;;;5.30;99.90;;;;;;4990752;28;20494;-73
2022/11/27 05:08:32;;;;;;;24.17;10.70;;;5.30;99.90;;;;;;4990540;28;20077;-74
2022/11/27 05:11:12;;;;;;;22.63;12.30;;;5.30;99.90;;;;;;4990278;28;20050;-74
2022/11/27 05:13:37;;;;;;;21.55;11.10;;;5.30;99.90;;;;;;4994447;28;20432;-73
2022/11/27 05:16:04;;;;;;;22.67;10.32;;;5.30;99.90;;;;;;4986867;28;20045;-73
2022/11/27 05:18:29;;;;;;;29.42;11.45;;;5.30;99.90;;;;;;4984760;28;20042;-73
2022/11/27 05:21:08;;;;;;;23.30;10.70;;;5.30;99.90;;;;;;4993261;28;20080;-73
2022/11/27 05:23:33;;;;;;;;;;;5.30;99.90;;;;;;4999920;28;20061;-73
2022/11/27 05:25:59;;;;;;;42.70;12.35;;;5.30;99.90;;;;;;4992564;28;19925;-73
2022/11/27 05:28:26;;;;;;;22.55;11.23;;;5.20;99.90;;;;;;4991351;28;20038;-75
2022/11/27 05:30:51;;;;;;;19.05;10.75;;;5.30;99.90;;;;;;4990312;28;20053;-75
2022/11/27 05:33:18;;;;;;;21.13;11.57;;;5.30;99.90;;;;;;4990485;28;20468;-75
2022/11/27 05:35:44;;;;;;;24.95;11.60;;;5.30;99.90;;;;;;4993545;28;20041;-75
2022/11/27 05:38:11;;;;;;;26.08;11.45;;;5.20;99.90;;;;;;4990771;28;20042;-75
2022/11/27 05:40:37;;;;;;;23.95;10.43;;;5.20;99.90;;;;;;4993670;28;20076;-75
2022/11/27 05:43:02;;;;;;;27.15;10.23;;;5.30;99.90;;;;;;4988700;28;20519;-75
2022/11/27 05:45:29;;;;;;;23.10;10.63;;;5.20;99.90;;;;;;4993162;28;20037;-75
2022/11/27 05:47:54;;;;;;;32.85;10.82;;;5.30;99.90;;;;;;4993666;28;20065;-75
2022/11/27 05:50:20;;;;;;;18.75;10.52;;;5.20;99.90;;;;;;4992673;28;20160;-75
2022/11/27 05:52:45;;;;;;;21.02;12.25;;;5.20;99.90;;;;;;4993670;28;20072;-75
2022/11/27 05:55:11;;;;;;;20.40;9.95;;;5.20;99.90;;;;;;4993151;28;20069;-75
2022/11/27 05:57:37;;;;;;;21.20;11.63;;;5.20;99.90;;;;;;4977204;28;20050;-75
2022/11/27 06:00:04;;;;;;;19.70;10.77;;;5.20;99.90;;;;;;4989292;28;20050;-75
2022/11/27 06:02:30;;;;;;;19.45;10.98;;;5.20;99.90;;;;;;4992083;28;20081;-75
2022/11/27 06:04:56;;;;;;;28.25;10.68;;;5.20;99.90;;;;;;4983635;28;20074;-75
2022/11/27 06:07:21;;;;;;;25.38;11.90;;;5.20;99.90;;;;;;4991340;28;20107;-75
2022/11/27 06:09:47;;;;;;;25.38;10.75;;;5.20;99.90;;;;;;4992473;28;20053;-75
2022/11/27 06:12:12;;;;;;;17.48;10.43;;;5.20;99.90;;;;;;4992205;28;20064;-75
2022/11/27 06:14:39;;;;;;;23.33;10.82;;;5.20;99.90;;;;;;4991969;28;20526;-75
2022/11/27 06:17:05;;;;;;;20.42;11.75;;;5.20;99.90;;;;;;4986629;28;20128;-75
2022/11/27 06:19:30;;;;;;;28.20;10.65;;;5.20;99.90;;;;;;4991915;28;20084;-75
2022/11/27 06:21:56;;;;;;;23.73;10.90;;;5.20;99.90;;;;;;4986488;28;20674;-75
2022/11/27 06:24:21;;;;;;;27.02;10.93;;;5.20;99.90;;;;;;4986464;28;20495;-75
2022/11/27 06:26:47;;;;;;;23.63;11.90;;;5.20;99.90;;;;;;5010217;28;20068;-75
2022/11/27 06:29:13;;;;;;;31.85;11.05;;;5.20;99.90;;;;;;4992851;28;20447;-75
2022/11/27 06:31:39;;;;;;;22.85;11.38;;;5.20;99.90;;;;;;4991620;28;20073;-75
2022/11/27 06:34:05;;;;;;;27.52;11.25;;;5.20;99.90;;;;;;4991128;28;20050;-75
2022/11/27 06:36:36;;;;;;;25.70;11.52;;;5.20;99.90;;;;;;4989532;28;20506;-75
2022/11/27 06:39:05;;;;;;;25.63;10.30;;;5.20;99.90;;;;;;4991322;28;20048;-75
2022/11/27 06:41:31;;;;;;;22.40;11.60;;;5.20;99.90;;;;;;4992279;28;20050;-75
2022/11/27 06:43:58;;;;;;;20.02;11.98;;;5.20;99.90;;;;;;4992416;28;20072;-75
2022/11/27 06:46:25;;;;;;;19.10;10.32;;;5.20;99.90;;;;;;4992715;28;20085;-75
2022/11/27 06:48:53;;;;;;;28.35;11.05;;;5.20;99.90;;;;;;4992864;28;20046;-75
2022/11/27 06:51:24;;;;;;;21.58;11.52;;;5.20;99.90;;;;;;4992327;28;20062;-74
2022/11/27 06:53:51;;;;;;;22.10;10.38;;;5.10;99.90;;;;;;5006832;28;20050;-74
2022/11/27 06:56:20;;;;;;;25.92;10.68;;;5.20;99.90;;;;;;4992179;28;20050;-74
2022/11/27 06:58:50;;;;;;;27.30;10.52;;;5.20;99.90;;;;;;4986778;28;20069;-75
2022/11/27 07:01:16;;;;;;;18.70;10.70;;;5.20;99.90;;;;;;4992214;28;20053;-75
2022/11/27 07:03:42;;;;;;;22.70;11.20;;;5.20;99.90;;;;;;4991871;28;20053;-75
2022/11/27 07:06:12;;;;;;;21.85;12.10;;;5.20;99.90;;;;;;5007924;28;20052;-75
2022/11/27 07:08:38;;;;;;;39.13;12.57;;;5.20;99.90;;;;;;5008716;28;20129;-75
2022/11/27 07:11:22;;;;;;;29.60;11.90;;;5.10;99.90;;;;;;4985853;28;20053;-75
2022/11/27 07:13:49;;;;;;;33.15;12.25;;;5.20;99.90;;;;;;5003501;28;20049;-75
2022/11/27 07:16:17;;;;;;;20.40;12.10;;;5.20;99.90;;;;;;4989154;28;20050;-75
2022/11/27 07:18:46;;;;;;;29.80;12.30;;;5.20;99.90;;;;;;4991029;28;20050;-74
2022/11/27 07:21:12;;;;;;;13.43;10.23;;;5.20;99.90;;;;;;4991028;28;20476;-75
2022/11/27 07:23:38;;;;;;;24.90;11.50;;;5.20;99.90;;;;;;4991037;28;20169;-75
2022/11/27 07:26:09;;;;;;;20.08;10.52;;;5.20;99.90;;;;;;4974403;28;20113;-75
2022/11/27 07:28:35;;;;;;;33.05;11.25;;;5.20;99.90;;;;;;4986169;28;20436;-75
2022/11/27 07:31:02;;;;;;;17.85;11.27;;;5.20;99.90;;;;;;4983308;28;20038;-74
2022/11/27 07:33:27;;;;;;;29.20;11.85;;;5.20;99.90;;;;;;4990442;28;20096;-75
2022/11/27 07:36:05;;;;;;;27.30;13.60;;;5.20;99.90;;;;;;4989488;28;20046;-74
2022/11/27 07:38:31;;;;;;;22.90;10.90;;;5.20;99.90;;;;;;4990852;28;20518;-75
2022/11/27 07:41:00;;;;;;;19.95;10.32;;;5.20;99.90;;;;;;4990706;28;20045;-75
2022/11/27 07:43:26;;;;;;;21.25;10.90;;;5.20;99.90;;;;;;4986388;28;20046;-75
2022/11/27 07:45:52;;;;;;;29.92;11.75;;;5.20;99.90;;;;;;4989991;28;20050;-75
2022/11/27 07:48:18;;;;;;;40.75;14.13;;;5.20;99.90;;;;;;4985166;28;20852;-75
2022/11/27 07:50:44;;;;;;;25.75;13.30;;;5.20;99.90;;;;;;4989732;28;20228;-75
2022/11/27 07:53:09;;;;;;;25.15;13.02;;;5.20;99.90;;;;;;4989846;28;20057;-75
2022/11/27 07:55:39;;;;;;;24.23;12.40;;;5.20;99.90;;;;;;4990790;28;20068;-75
2022/11/27 07:58:06;;;;;;;19.83;12.73;;;5.20;99.90;;;;;;4991521;28;20805;-75
2022/11/27 08:00:31;;;;;;;23.98;13.02;;;5.30;99.90;;;;;;4988429;28;20064;-74
2022/11/27 08:02:58;;;;;;;24.85;12.35;;;5.20;99.90;;;;;;4991007;28;20050;-75
2022/11/27 08:05:24;;;;;;;22.58;12.07;;;5.20;99.90;;;;;;4989093;28;20046;-75
2022/11/27 08:07:50;;;;;;;32.50;13.57;;;5.20;99.90;;;;;;4990286;28;20050;-75
2022/11/27 08:10:15;;;;;;;20.83;13.00;;;5.30;99.90;;;;;;4981726;28;20046;-75
2022/11/27 08:12:41;;;;;;;22.33;12.45;;;5.30;99.90;;;;;;4992264;28;20435;-75
2022/11/27 08:15:07;;;;;;;26.17;11.88;;;5.30;99.90;;;;;;4990991;28;20116;-75
2022/11/27 08:17:33;;;;;;;22.38;11.57;;;5.30;99.90;;;;;;4981642;28;20100;-74
2022/11/27 08:19:58;;;;;;;19.55;11.65;;;5.30;99.90;;;;;;4989761;28;20042;-74
2022/11/27 08:22:24;;;;;;;22.60;13.25;;;5.30;99.90;;;;;;4985599;28;20130;-75
2022/11/27 08:24:50;;;;;;;34.30;13.70;;;5.40;99.90;;;;;;4990394;28;20046;-75
2022/11/27 08:27:16;;;;;;;24.48;12.95;;;5.40;99.90;;;;;;4989928;28;20046;-75
2022/11/27 08:29:42;;;;;;;22.50;12.45;;;5.40;99.90;;;;;;4968989;28;20097;-74
2022/11/27 08:32:09;;;;;;;19.70;13.43;;;5.40;99.90;;;;;;4986349;28;20041;-75
2022/11/27 08:34:34;;;;;;;32.40;13.57;;;5.40;99.90;;;;;;5004941;28;20135;-75
2022/11/27 08:37:00;;;;;;;22.15;12.77;;;5.40;99.90;;;;;;4989874;28;20133;-75
2022/11/27 08:39:26;;;;;;;25.67;12.75;;;5.40;99.90;;;;;;4988955;28;20057;-75
2022/11/27 08:41:52;;;;;;;29.13;13.70;;;5.40;99.90;;;;;;4989807;28;20076;-75
2022/11/27 08:44:18;;;;;;;21.42;13.32;;;5.50;99.90;;;;;;4990252;28;20064;-76
2022/11/27 08:46:44;;;;;;;30.48;13.77;;;5.50;99.90;;;;;;4990290;28;20050;-75
2022/11/27 08:49:09;;;;;;;32.13;13.32;;;5.50;99.90;;;;;;4992910;28;20038;-74
2022/11/27 08:51:35;;;;;;;25.60;13.65;;;5.60;99.90;;;;;;5010777;28;20054;-74
2022/11/27 08:54:01;;;;;;;21.73;11.68;;;5.50;99.90;;;;;;4988788;28;20136;-74
2022/11/27 08:56:27;;;;;;;18.42;11.18;;;5.50;99.90;;;;;;4982155;28;20072;-74
2022/11/27 08:58:53;;;;;;;28.38;12.95;;;5.60;99.90;;;;;;4992078;28;20069;-73
2022/11/27 09:01:30;;;;;;;26.80;12.38;;;5.60;99.90;;;;;;4993203;28;20045;-74
2022/11/27 09:03:56;;;;;;;29.33;13.82;;;5.70;99.90;;;;;;4988229;28;20037;-74
2022/11/27 09:06:24;;;;;;;25.65;12.88;;;5.60;99.90;;;;;;4993243;28;20057;-74
2022/11/27 09:08:50;;;;;;;27.65;13.73;;;5.70;99.90;;;;;;4989047;28;20159;-74
2022/11/27 09:11:18;;;;;;;20.73;12.45;;;5.70;99.90;;;;;;4992165;28;20491;-74
2022/11/27 09:13:45;;;;;;;30.88;12.98;;;5.70;99.90;;;;;;4988742;28;20049;-74
2022/11/27 09:16:14;;;;;;;23.73;13.25;;;5.70;99.90;;;;;;4992908;28;20045;-74
2022/11/27 09:18:39;;;;;;;26.05;13.07;;;5.70;99.90;;;;;;4992792;28;20046;-74
2022/11/27 09:21:08;;;;;;;22.58;12.75;;;5.70;99.90;;;;;;4990981;28;20041;-73
2022/11/27 09:23:36;;;;;;;23.10;13.68;;;5.70;99.90;;;;;;4992361;28;20041;-73
2022/11/27 09:26:04;;;;;;;25.93;13.30;;;5.70;99.90;;;;;;5005932;28;20124;-74
2022/11/27 09:28:31;;;;;;;19.67;12.68;;;5.80;99.90;;;;;;4991889;28;20293;-72
2022/11/27 09:30:59;;;;;;;24.20;13.40;;;5.80;99.90;;;;;;4990893;28;20050;-72
2022/11/27 09:33:26;;;;;;;19.15;12.90;;;5.80;99.90;;;;;;4989566;28;20110;-72
2022/11/27 09:35:52;;;;;;;33.20;13.55;;;5.80;99.90;;;;;;4992306;28;20050;-73
2022/11/27 09:38:18;;;;;;;26.30;13.40;;;5.80;99.90;;;;;;4989334;28;20060;-74
2022/11/27 09:40:50;;;;;;;21.20;13.13;;;5.80;99.90;;;;;;4989926;28;20426;-74
2022/11/27 09:43:19;;;;;;;39.53;15.02;;;5.80;99.90;;;;;;4992391;28;20127;-73
2022/11/27 09:45:53;;;;;;;26.70;13.57;;;5.80;99.90;;;;;;4986233;28;20057;-73
2022/11/27 09:48:41;;;;;;;28.35;14.75;;;5.80;99.90;;;;;;5006882;28;20072;-74
2022/11/27 09:51:33;;;;;;;24.25;15.25;;;5.80;99.90;;;;;;4991770;28;20050;-74
2022/11/27 09:54:05;;;;;;;33.42;14.68;;;5.80;99.90;;;;;;5009419;28;20549;-75
2022/11/27 09:56:35;;;;;;;22.77;13.80;;;5.80;99.90;;;;;;4992426;28;20413;-75
2022/11/27 09:59:02;;;;;;;23.85;13.43;;;5.70;99.90;;;;;;4991050;28;20069;-75
2022/11/27 10:01:30;;;;;;;18.67;12.27;;;5.70;99.90;;;;;;4993934;28;20046;-75
2022/11/27 10:03:56;;;;;;;26.40;15.23;;;5.80;99.90;;;;;;4994876;28;20041;-76
2022/11/27 10:06:26;;;;;;;27.40;15.77;;;5.70;99.90;;;;;;4987861;28;20046;-76
2022/11/27 10:09:27;;;;;;;28.08;14.85;;;5.80;99.90;;;;;;4991114;28;20129;-75
2022/11/27 10:12:11;;;;;;;27.38;14.65;;;5.70;99.90;;;;;;4987588;28;20414;-74
2022/11/27 10:14:43;;;;;;;31.48;15.70;;;5.80;99.90;;;;;;4993948;28;20049;-74
2022/11/27 10:17:22;;;;;;;28.52;16.20;;;5.70;99.90;;;;;;4991542;28;20081;-75
2022/11/27 10:20:12;;;;;;;29.20;16.00;;;5.70;99.90;;;;;;5008016;28;20057;-76
2022/11/27 10:23:01;;;;;;;23.27;13.63;;;5.70;99.90;;;;;;4989612;28;20085;-76
2022/11/27 10:25:36;;;;;;;23.38;14.40;;;5.70;99.90;;;;;;4984982;28;20412;-76
2022/11/27 10:28:17;;;;;;;33.47;16.27;;;5.80;99.90;;;;;;4990701;28;20603;-76
2022/11/27 10:31:01;;;;;;;26.20;16.52;;;5.70;99.90;;;;;;4984211;28;20046;-76
2022/11/27 10:33:37;;;;;;;23.92;14.95;;;5.80;99.90;;;;;;4989296;28;20517;-75
2022/11/27 10:36:04;;;;;;;27.58;14.63;;;5.70;99.90;;;;;;4984641;28;20073;-75
2022/11/27 10:38:35;;;;;;;28.70;15.73;;;5.80;99.90;;;;;;4997583;28;20045;-75
2022/11/27 10:41:13;;;;;;;28.17;15.02;;;5.70;99.90;;;;;;4991281;28;20155;-76
2022/11/27 10:43:39;;;;;;;30.20;15.77;;;5.70;99.90;;;;;;4991514;28;20410;-76
2022/11/27 10:46:14;;;;;;;24.42;15.90;;;5.70;99.90;;;;;;4989620;28;20057;-76
2022/11/27 10:48:41;;;;;;;29.52;17.02;;;5.80;99.90;;;;;;4996560;28;20109;-76
2022/11/27 10:51:16;;;;;;;27.88;16.10;;;5.80;99.90;;;;;;4969070;28;20457;-76
2022/11/27 10:53:43;;;;;;;32.08;15.70;;;5.80;99.90;;;;;;4991380;28;20153;-76
2022/11/27 10:56:14;;;;;;;35.95;16.25;;;5.80;99.90;;;;;;5008508;28;20065;-76
2022/11/27 10:58:56;;;;;;;32.08;15.82;;;5.80;99.90;;;;;;4986919;28;20062;-76
2022/11/27 11:01:25;;;;;;;27.30;16.77;;;5.80;99.90;;;;;;5003968;28;20053;-76
2022/11/27 11:04:04;;;;;;;27.67;16.33;;;5.80;99.90;;;;;;4990342;28;20073;-76
2022/11/27 11:06:32;;;;;;;29.13;16.02;;;5.80;99.90;;;;;;5008368;28;20050;-76
2022/11/27 11:09:28;;;;;;;42.97;17.17;;;5.80;99.90;;;;;;4986271;28;20121;-75
2022/11/27 11:12:22;;;;;;;25.00;15.38;;;5.80;99.90;;;;;;4974251;28;20758;-75
2022/11/27 11:14:52;;;;;;;37.85;20.98;;;5.80;99.90;;;;;;4977985;28;20447;-75
2022/11/27 11:17:23;;;;;;;33.00;19.58;;;5.80;99.90;;;;;;4987460;28;20046;-75
2022/11/27 11:19:49;;;;;;;33.35;17.10;;;5.80;99.90;;;;;;4990803;28;20048;-75
2022/11/27 11:22:15;;;;;;;30.88;16.75;;;5.80;99.90;;;;;;4990543;28;20041;-75
2022/11/27 11:24:50;;;;;;;28.67;17.50;;;5.80;99.90;;;;;;4987498;28;20046;-75
2022/11/27 11:27:26;;;;;;;25.33;16.08;;;5.80;99.90;;;;;;4990560;28;20045;-76
2022/11/27 11:30:04;;;;;;;25.65;16.85;;;5.80;99.90;;;;;;5010492;28;20068;-76
2022/11/27 11:32:39;;;;;;;33.13;17.55;;;5.80;99.90;;;;;;4990974;28;20051;-77
2022/11/27 11:35:26;;;;;;;37.30;18.90;;;5.80;99.90;;;;;;4989821;28;20057;-77
2022/11/27 11:37:52;;;;;;;33.40;18.10;;;5.80;99.90;;;;;;4977080;28;20726;-77
2022/11/27 11:40:56;;;;;;;27.92;19.70;;;5.80;99.90;;;;;;4990216;28;20096;-76
2022/11/27 11:43:33;;;;;;;33.05;19.13;;;5.80;99.90;;;;;;4982814;28;20045;-77
2022/11/27 11:46:07;;;;;;;35.97;17.45;;;5.80;99.90;;;;;;4987252;28;20041;-78
2022/11/27 11:48:33;;;;;;;31.13;18.23;;;5.80;99.90;;;;;;4990267;28;20091;-78
2022/11/27 11:51:19;;;;;;;37.15;20.45;;;5.80;99.90;;;;;;4990200;28;20049;-78
2022/11/27 11:53:59;;;;;;;28.83;18.45;;;5.80;99.90;;;;;;4989256;28;20422;-77
2022/11/27 11:56:36;;;;;;;34.85;21.35;;;5.80;99.90;;;;;;4987676;28;20691;-77
2022/11/27 11:59:13;;;;;;;35.97;20.95;;;5.80;99.90;;;;;;4989891;28;20869;-76
2022/11/27 12:01:53;;;;;;;37.35;22.88;;;5.80;99.90;;;;;;4990268;28;20042;-76
2022/11/27 12:04:40;;;;;;;34.00;20.48;;;5.90;99.90;;;;;;4998835;28;20100;-76
2022/11/27 12:07:36;;;;;;;30.40;20.73;;;5.90;99.90;;;;;;4990124;28;20154;-75
2022/11/27 12:10:07;;;;;;;39.63;21.42;;;5.90;99.90;;;;;;4988298;28;20061;-76
2022/11/27 12:12:54;;;;;;;35.53;19.38;;;5.90;99.90;;;;;;4987606;28;20054;-77
2022/11/27 12:15:39;;;;;;;40.58;23.67;;;5.90;99.90;;;;;;4989717;28;20133;-76
2022/11/27 12:18:26;;;;;;;41.75;21.38;;;6.00;99.90;;;;;;4976810;28;20439;-76
2022/11/27 12:21:21;;;;;;;36.35;21.63;;;6.00;99.90;;;;;;5000552;28;20048;-75
2022/11/27 12:23:57;;;;;;;30.60;19.83;;;6.00;99.90;;;;;;4993548;28;20056;-75
2022/11/27 12:26:42;;;;;;;29.52;17.90;;;6.00;99.90;;;;;;4987518;28;20065;-76
2022/11/27 12:29:33;;;;;;;28.63;18.73;;;6.10;99.90;;;;;;4985831;28;20054;-77
2022/11/27 12:32:53;;;;;;;40.92;18.30;;;6.10;99.90;;;;;;4985433;28;20046;-76
2022/11/27 12:35:37;;;;;;;26.95;19.33;;;6.10;99.90;;;;;;4933182;29;20043;-76
2022/11/27 12:38:31;;;;;;;39.03;18.98;;;6.10;99.90;;;;;;4972379;28;20056;-76
2022/11/27 12:41:30;;;;;;;35.85;16.65;;;6.10;99.90;;;;;;4988941;28;20387;-76
2022/11/27 12:43:59;;;;;;;26.70;16.10;;;6.10;99.90;;;;;;4988592;28;20065;-76
2022/11/27 12:46:38;;;;;;;28.17;16.60;;;6.10;99.90;;;;;;4993565;28;20046;-74
2022/11/27 12:49:12;;;;;;;36.80;18.90;;;6.10;99.90;;;;;;5001997;28;20508;-74
2022/11/27 12:51:49;;;;;;;35.65;21.80;;;6.10;99.90;;;;;;5002861;28;20050;-73
2022/11/27 12:54:38;;;;;;;50.72;22.23;;;6.20;99.90;;;;;;5007929;28;20080;-73
2022/11/27 12:57:12;;;;;;;31.08;18.05;;;6.20;99.90;;;;;;4991879;28;20503;-73